Airfield :
LOGIN :

Register | Disclaimer

   EN    FR    IT 

 










Legend :    VFR   Marginal VFR   IFR   Intensive IFR   Very Intensive IFR
Visi :
Ceiling :
>= 8 km
>= 3000ft
5 to 8 km
1000 to 3000 ft
1500m to 5 km
500 to 1000 ft
800 to 1500m
200 to 500 ft
< 800m
< 200 ft
Symbols :   Thunderstorms  Fog  Heavy snow  Heavy precipitations  Wind > 20 kt
SIGMETs :     Misc.  Thunderstorms  Icing  Turbulence  Mountain Waves  Volcanic Ashes






- Airport Elevation : 55 ft
- IATA code : PYR


LGAD - Andravida

CURRENT METAR :
  • 250520Z VRB03KT CAVOK 07/05 Q1018

EXPIRED METARs :
  • 250450Z 11004KT CAVOK 07/05 Q1018
  • 250420Z VRB03KT CAVOK 07/05 Q1018
  • 250350Z VRB03KT CAVOK 05/04 Q1018
  • 250320Z VRB03KT CAVOK 08/06 Q1018
  • 250250Z 00000KT CAVOK 08/06 Q1018

TAF TAF LGAD
Valid from the 25 at 06:00 until the 25 at 15:00 UTC


250500Z 2506/2515 19014KT 9999 FEW025



MET'MAP, your aeronautical weather chart ! - Copyright ORBIFLY December 2007 - Disclaimer

ORBIFLY MET'MAP TEAM :

Programming & Development : Alexandra Zaïnal
Concept & original design : Baudouin d'Aumeries
Assistance for programming : Marc-Olivier Méhu
Technical & hardware support : Manuel Goepfert

Contact : metmap@orbifly.com




SOURCES & CREDITS :

   NOAA